Date,TemperatureHighF,TemperatureAvgF,TemperatureLowF,DewpointHighF,DewpointAvgF,DewpointLowF,HumidityHigh,HumidityAvg,HumidityLow,PressureMaxIn,PressureMinIn,WindSpeedMaxMPH,WindSpeedAvgMPH,GustSpeedMaxMPH,PrecipitationSumIn
2013-1-15,21.5,19.5,17.8,13.9,13.0,11.6,77,75,72,30.15,30.01,8,5,13,0.00
2013-1-16,18.1,17.1,16.4,11.7,10.9,10.3,79,76,74,30.01,29.92,7,6,11,0.00
2013-2-25,37.8,31.7,24.9,27.4,24.8,19.6,84,76,65,30.12,30.00,5,2,8,0.00
2013-2-26,32.0,28.2,24.9,26.3,24.3,21.8,94,86,74,30.00,29.66,14,8,28,0.01
2013-2-27,30.3,28.3,26.1,28.8,26.9,24.4,96,94,91,29.79,29.64,9,6,15,0.00
2013-2-28,29.2,27.1,22.7,27.8,24.1,16.9,95,89,78,30.11,29.79,8,5,11,0.01
2013-3-1,25.6,21.4,14.1,17.8,15.3,9.3,90,77,65,30.25,30.11,10,4,14,0.00
2013-3-2,25.9,17.1,8.7,12.2,7.6,4.1,92,67,44,30.27,30.15,9,3,12,0.01
2013-3-3,29.1,18.4,6.0,11.3,6.9,1.5,83,61,39,30.16,30.06,6,1,7,0.02
2013-3-4,28.5,22.6,16.0,23.2,15.4,2.0,87,74,48,30.09,30.00,7,3,12,0.00
2013-3-5,25.6,24.4,23.0,24.0,22.5,20.9,95,92,87,30.11,29.89,10,4,14,0.00
2013-3-6,28.1,24.2,18.8,24.0,21.2,14.5,100,88,81,30.31,30.12,14,4,15,0.01
2013-3-7,33.8,22.8,9.9,21.0,15.7,7.0,91,75,57,30.40,30.30,5,1,6,0.04
2013-3-8,35.5,27.7,19.9,26.3,22.5,15.4,93,81,67,30.42,30.21,8,4,17,0.01
2013-3-9,38.2,33.9,28.8,37.2,30.5,23.5,96,87,76,30.21,29.72,10,6,15,0.51
2013-3-10,39.1,35.7,31.3,38.1,34.8,30.3,97,96,94,29.76,29.61,11,5,21,0.77
2013-3-11,31.2,29.2,25.8,30.2,28.2,22.7,97,96,88,29.74,29.53,9,5,14,0.01
2013-3-12,28.4,24.7,21.3,23.8,20.4,15.6,94,84,71,30.01,29.74,9,5,17,0.00
2013-3-13,29.3,22.1,15.6,17.8,10.9,8.0,87,64,41,30.30,30.01,11,5,16,0.00
2013-3-14,22.5,20.2,17.8,11.8,11.2,10.6,73,68,63,30.30,30.26,3,1,3,0.00
2013-3-17,27.4,15.2,22.1,18.2,-30.0,-99.9,71,41,65,30.22,29.95,6,-393,10,0.00
2013-3-18,-200.0,0.0,200.0,-99.9,-99.9,-99.9,0,0,100,29.98,29.44,0,-999,0,0.00
2013-3-19,26.4,8.3,11.9,10.5,-57.9,-99.9,75,22,45,30.05,29.58,13,-609,19,0.00
2013-3-20,16.4,5.2,7.6,5.0,-60.8,-99.9,67,23,58,30.09,29.91,11,-616,20,0.00
2013-3-21,25.3,8.4,14.3,10.9,-58.1,-99.9,68,22,51,30.07,29.88,9,-614,11,0.00
2013-3-22,28.6,6.5,20.9,14.0,-70.2,-99.9,65,15,50,30.04,29.91,6,-733,9,0.00
2013-5-11,49.0,26.2,42.7,33.0,-25.9,-99.9,67,30,42,30.00,29.90,14,-423,20,0.00
2013-5-12,51.6,18.3,41.3,27.6,-52.8,-99.9,54,15,32,30.09,29.98,11,-618,19,0.00
2013-5-13,62.2,20.3,52.6,34.7,-54.8,-99.9,42,12,30,30.08,29.80,8,-652,12,0.00
2013-5-14,87.5,28.3,75.2,54.8,-48.3,-99.9,48,12,29,29.80,29.45,9,-658,12,0.00
2013-5-15,-200.0,0.0,200.0,-99.9,-99.9,-99.9,0,0,100,29.51,29.45,0,-999,0,0.00
2013-5-20,71.0,69.0,66.8,62.5,61.8,61.2,85,78,74,29.58,29.50,1,0,2,0.21
2013-5-21,72.5,66.1,56.9,62.2,58.5,54.2,91,77,62,29.62,29.49,9,3,17,0.00
2013-5-22,66.4,59.9,52.0,60.5,56.6,50.6,95,89,77,29.74,29.54,8,2,12,0.02
2013-5-23,60.2,51.2,42.9,50.6,42.6,32.6,96,76,36,30.26,29.74,12,6,19,0.13
2013-5-24,61.3,49.4,33.6,43.8,38.5,32.1,95,68,45,30.41,30.25,5,1,10,0.00
2013-5-25,59.0,51.6,45.9,43.3,39.8,34.3,79,64,48,30.33,30.23,4,1,12,0.00
2013-5-26,62.7,53.2,46.8,50.8,42.0,32.4,89,67,48,30.25,30.08,6,2,14,0.14
2013-5-27,53.6,51.6,49.1,52.0,47.9,41.9,97,88,68,30.08,29.83,5,2,13,0.09
2013-5-28,69.8,56.9,49.2,65.3,55.7,48.4,98,96,84,29.84,29.65,5,1,8,0.30
2013-5-29,79.9,67.7,59.0,68.9,62.9,58.2,98,86,66,29.81,29.69,9,2,30,0.47
2013-5-30,80.8,70.2,62.0,69.8,65.5,59.4,97,86,67,29.79,29.58,10,4,20,0.26
2013-5-31,76.5,67.1,61.9,65.7,61.8,59.1,94,84,59,29.68,29.58,8,4,17,0.00
2013-6-1,76.7,66.6,55.3,64.8,58.2,52.7,96,76,52,29.63,29.53,7,2,15,0.00
2013-6-2,61.1,51.3,43.6,57.1,43.8,38.7,93,77,54,29.99,29.63,15,6,23,0.02
2013-6-3,67.8,55.5,39.0,49.7,44.0,37.7,96,69,43,30.04,29.95,4,0,6,0.00
2013-6-4,64.8,57.1,49.2,55.1,49.9,45.1,93,78,59,30.10,29.99,5,1,6,0.37
2013-6-5,57.7,53.2,48.8,55.7,51.0,46.9,95,92,88,30.06,29.88,6,1,13,0.31
2013-6-6,57.5,53.4,49.6,54.6,51.3,48.5,97,93,87,29.92,29.86,4,1,8,0.21
2013-6-7,67.2,56.8,48.9,56.1,51.1,46.5,96,82,57,29.95,29.86,6,1,8,0.00
2013-6-8,68.8,61.4,54.9,53.1,49.7,45.5,85,66,49,29.93,29.85,4,0,7,0.00
2013-6-9,75.2,62.9,55.3,65.1,56.1,47.7,97,80,58,29.93,29.73,6,2,15,0.71
2013-6-10,78.8,67.5,57.4,66.2,62.0,56.3,98,84,61,29.78,29.70,6,1,9,0.00
2013-6-11,81.6,69.0,56.2,69.3,63.0,55.3,97,82,61,29.83,29.72,4,1,9,0.00
2013-6-12,73.2,66.6,58.1,68.0,63.8,57.3,97,91,80,29.83,29.57,10,3,25,1.44
2013-6-13,58.1,57.9,57.7,56.8,56.4,56.0,96,95,94,29.76,29.69,4,2,6,0.00
2013-6-21,64.2,64.2,64.2,62.4,62.4,62.4,94,94,94,29.98,29.98,7,7,7,0.00
2013-6-22,77.4,70.7,64.7,70.4,67.9,63.5,96,91,78,29.95,29.83,5,1,13,1.45
2013-6-23,82.9,72.5,62.2,73.9,67.8,61.0,97,86,66,29.95,29.75,8,2,14,0.29
2013-6-24,77.7,71.0,67.3,69.5,66.7,65.4,95,87,71,29.91,29.75,6,2,13,0.01
2013-6-25,82.0,70.7,64.1,74.0,68.2,63.2,97,92,75,29.83,29.70,7,1,9,0.78
2013-6-26,82.8,73.0,65.4,72.0,68.9,63.9,97,88,67,29.70,29.60,7,1,13,0.69
2013-6-27,84.4,75.7,68.5,73.3,67.2,58.7,97,77,53,29.71,29.61,7,1,15,0.15
2013-6-28,72.2,67.0,62.2,64.9,61.1,57.3,97,82,65,29.66,29.57,8,2,12,0.35
2013-6-29,67.9,63.0,59.9,62.9,60.5,58.0,97,92,76,29.79,29.56,11,4,15,0.19
2013-6-30,75.2,64.0,55.3,59.0,53.7,48.8,91,71,42,29.99,29.79,10,4,15,0.00
2013-7-1,77.1,65.2,52.6,59.5,53.8,50.9,95,69,45,30.08,29.99,9,2,14,0.00
2013-7-2,64.5,59.6,55.0,55.8,53.4,51.9,92,81,67,30.04,30.02,1,0,3,0.00
2013-7-10,69.7,69.4,69.1,60.7,59.6,58.1,73,71,68,29.86,29.86,9,9,10,0.02
2013-7-19,75.5,73.9,72.1,64.6,63.8,62.8,73,71,69,29.75,29.73,2,1,5,0.00
2013-7-20,82.2,72.0,60.9,67.5,63.1,57.7,93,74,55,29.86,29.75,5,1,9,0.00
2013-7-21,76.4,64.8,59.0,66.9,59.9,55.8,95,85,71,29.90,29.79,11,2,12,0.41
2013-7-22,82.7,71.3,61.4,72.3,66.3,60.2,97,85,70,29.80,29.54,10,2,16,0.05
2013-7-23,71.9,65.5,55.9,66.8,57.3,53.1,93,76,61,29.93,29.64,10,4,15,0.01
2013-7-24,72.3,62.0,51.8,58.1,53.0,49.9,95,74,52,30.02,29.93,5,0,7,0.00
2013-7-25,75.9,65.7,57.2,65.5,59.2,51.5,91,80,67,29.99,29.87,6,2,12,0.04
2013-7-26,73.9,66.1,59.0,68.3,60.3,53.0,94,82,55,29.87,29.75,7,2,13,0.16
2013-7-27,58.6,52.5,48.2,52.9,47.4,43.1,91,83,70,29.90,29.82,11,3,14,0.00
2013-7-28,63.9,55.8,49.1,54.3,50.7,46.4,95,84,67,29.96,29.79,8,2,12,0.02
2013-7-29,73.9,61.8,51.7,61.8,55.4,49.7,93,80,60,30.08,29.95,9,1,14,0.00
2013-7-30,70.2,64.4,57.7,63.1,59.8,56.1,95,86,70,30.09,29.99,4,0,9,0.00
2013-7-31,78.0,66.4,59.8,68.2,62.1,57.3,97,87,66,30.00,29.88,10,1,11,0.00
2013-8-1,75.9,66.2,57.4,61.4,57.6,53.6,96,76,50,29.93,29.82,8,2,12,0.00
2013-8-2,77.3,68.9,60.6,65.5,59.5,53.6,93,73,52,29.89,29.74,6,1,12,0.01
2013-8-3,74.6,63.8,51.2,59.0,53.6,49.5,96,72,46,30.08,29.89,8,1,15,0.00
2013-8-4,72.3,61.9,50.0,60.7,54.8,48.1,95,79,53,30.16,30.03,6,0,6,0.00
2013-8-5,70.7,63.2,57.2,63.8,59.6,54.1,97,88,75,30.03,29.76,7,2,13,0.10
2013-8-6,81.9,71.6,63.8,70.5,67.0,62.9,97,86,64,29.79,29.68,4,1,11,0.00
2013-8-7,74.5,68.8,61.6,71.0,64.0,57.7,96,85,65,29.91,29.65,10,3,16,0.00
2013-8-8,76.2,66.7,56.5,64.9,59.3,53.1,94,78,59,29.96,29.90,4,1,9,0.00
2013-8-9,77.7,68.5,60.0,63.6,59.6,54.8,93,75,51,30.00,29.89,6,1,10,0.00
2013-8-10,74.3,62.6,51.6,58.9,54.6,50.2,96,77,51,30.09,30.00,5,1,10,0.00
2013-8-11,69.3,62.2,54.0,65.9,60.1,51.8,97,93,87,30.06,29.95,3,0,5,0.28
2013-8-12,77.1,67.3,59.9,66.0,62.1,56.2,98,85,60,29.96,29.83,7,1,10,0.14
2013-8-13,66.7,59.1,50.5,57.3,50.7,47.0,93,74,56,30.11,29.92,8,2,12,0.00
2013-8-14,66.9,55.2,46.8,57.8,51.5,45.2,94,87,72,30.13,30.05,0,0,0,0.00
2013-8-15,74.1,63.2,52.9,60.7,55.8,50.9,94,79,51,30.08,30.01,5,0,9,0.00
2013-8-16,80.2,64.9,53.7,62.6,55.6,51.2,94,74,43,30.12,30.06,4,0,7,0.00
2013-8-17,79.1,66.7,54.4,62.8,57.1,52.4,94,74,46,30.17,30.08,3,0,5,0.00
2013-8-18,79.4,67.8,57.5,63.1,57.9,54.2,92,72,49,30.14,30.01,3,0,8,0.00
2013-8-19,79.5,68.7,59.1,66.3,61.2,56.5,93,78,56,30.02,29.92,4,0,12,0.00
2013-8-20,84.1,74.5,66.3,68.0,65.1,60.9,89,74,56,29.97,29.89,5,2,13,0.00
2013-8-21,86.3,76.6,69.9,73.0,69.2,64.7,95,79,63,29.91,29.81,7,3,13,0.01
2013-8-22,79.2,70.7,64.7,70.4,67.1,61.5,97,89,64,30.05,29.89,4,1,6,0.41
2013-8-23,79.4,69.7,59.9,64.1,59.0,52.6,84,70,54,30.10,30.03,3,1,10,0.00
2013-8-24,80.9,70.4,60.0,70.9,61.5,50.7,85,73,65,30.17,30.05,5,1,11,0.00
2013-8-25,86.7,77.6,70.6,74.0,69.4,66.7,88,76,63,30.08,29.97,7,4,13,0.00
2013-8-26,88.6,79.5,73.1,77.6,71.7,66.2,84,77,68,30.02,29.84,8,2,14,0.00
2013-8-27,90.8,82.2,76.1,77.4,73.5,69.8,89,75,61,29.85,29.69,5,2,11,0.00
2013-8-28,83.0,74.0,69.3,75.0,70.4,67.5,97,89,69,29.97,29.73,6,1,7,0.00
2013-8-29,85.0,75.2,66.3,71.5,68.1,63.9,95,80,57,30.00,29.85,4,1,10,0.00
2013-8-30,88.3,78.0,68.9,79.0,71.6,64.9,95,81,63,29.85,29.68,8,2,16,0.00
2013-8-31,82.4,70.9,62.5,68.8,64.5,60.9,95,81,57,29.80,29.70,5,1,10,0.00
2013-9-1,82.5,71.1,64.1,72.1,64.6,58.4,97,82,49,29.77,29.63,8,1,13,0.00
2013-9-2,67.7,61.2,50.9,59.7,55.0,48.7,95,81,61,29.96,29.76,8,3,12,0.00
2013-9-3,72.6,58.2,44.4,59.5,51.8,43.3,97,81,53,30.04,29.95,3,0,6,0.00
2013-9-4,83.2,68.0,55.5,66.2,59.7,52.3,92,76,53,30.04,29.95,3,0,7,0.00
2013-9-5,74.6,65.4,59.0,62.0,58.7,49.6,96,80,62,30.19,30.03,4,1,10,0.00
2013-9-6,84.4,70.1,57.8,67.8,58.7,46.1,77,68,56,30.14,29.87,5,2,10,0.00
2013-9-7,88.2,77.2,69.7,74.6,67.6,62.0,90,73,60,29.88,29.76,6,2,10,0.00
2013-9-8,70.2,65.3,60.5,67.3,61.9,57.6,93,89,82,30.00,29.87,7,2,16,0.00
2013-9-9,89.7,76.2,64.7,77.7,69.3,61.9,96,81,59,29.88,29.65,6,2,11,0.00
2013-9-10,91.6,81.6,73.8,69.5,66.9,63.8,81,62,47,29.86,29.70,6,2,13,0.00
2013-9-11,75.6,73.0,65.7,66.6,65.0,62.2,93,76,67,29.89,29.85,2,0,3,0.07
2013-10-13,55.8,43.8,38.4,39.6,37.3,35.6,90,79,49,30.37,30.31,1,0,1,0.00
2013-10-14,59.3,48.4,37.1,44.9,40.7,35.0,94,76,58,30.37,30.05,5,2,15,0.00
2013-10-15,56.5,50.6,46.9,55.1,47.4,43.1,97,89,78,30.05,29.66,6,3,12,0.00
2013-10-16,48.5,46.7,44.4,47.0,44.9,42.5,96,94,88,29.88,29.69,6,2,11,0.01
2013-10-17,52.9,43.8,38.9,42.8,39.5,37.0,100,86,58,29.87,29.75,4,0,7,0.00
2013-10-18,46.7,42.3,35.9,41.4,37.9,34.3,94,85,70,29.89,29.72,6,1,14,0.00
2013-10-19,49.1,36.4,30.8,39.8,27.4,-99.9,95,82,55,29.86,29.66,7,-54,9,0.81
2013-10-20,-200.0,0.0,200.0,-99.9,-99.9,-99.9,0,0,100,29.78,29.58,0,-999,0,0.00
2013-10-21,36.6,11.7,34.1,33.2,-57.8,-99.9,88,24,63,29.90,29.64,6,-667,16,0.00
2013-10-22,42.4,14.0,29.1,30.5,-53.1,-99.9,85,25,54,29.94,29.82,6,-633,12,0.00
2013-10-23,38.5,10.1,28.9,29.4,-63.6,-99.9,91,21,59,29.98,29.85,6,-713,9,0.01
2013-10-24,40.3,13.2,31.2,27.2,-54.3,-99.9,80,24,55,30.25,29.93,8,-635,13,0.00
2013-10-25,48.3,15.6,34.4,31.5,-53.3,-99.9,78,21,50,30.30,29.81,10,-638,18,0.00
2013-10-26,47.4,16.3,42.7,36.2,-52.1,-99.9,77,22,51,30.00,29.67,13,-633,17,0.00
2013-10-27,52.3,16.9,37.1,32.0,-52.8,-99.9,75,20,43,29.99,29.80,7,-638,12,0.00
2013-10-28,39.6,12.7,34.4,30.1,-56.4,-99.9,77,24,68,30.37,29.98,8,-661,14,0.00
2013-10-29,51.6,15.5,37.8,40.8,-53.4,-99.9,82,25,65,30.36,30.06,4,-662,7,0.00
2013-10-30,51.0,8.2,48.6,49.9,-75.5,-99.9,96,16,95,30.06,29.66,5,-835,10,0.00
2013-10-31,-200.0,0.0,200.0,-99.9,-99.9,-99.9,0,0,100,29.67,29.20,0,-999,0,0.00
2013-11-1,43.0,3.9,42.0,40.6,-87.9,-99.9,93,8,91,29.65,29.22,3,-908,6,0.00
2013-11-2,42.2,8.7,37.7,35.5,-71.0,-99.9,89,17,74,30.10,29.65,7,-784,12,0.00
2013-11-3,48.2,14.1,36.2,37.9,-55.8,-99.9,96,24,60,30.22,30.05,7,-672,15,0.19
2013-11-4,49.6,11.6,44.1,40.9,-66.2,-99.9,75,17,70,30.10,29.92,10,-755,16,0.00
2013-11-5,50.0,7.1,43.3,46.9,-78.5,-99.9,89,13,83,30.18,29.75,4,-850,7,0.00
2013-11-6,40.2,6.4,37.2,35.4,-78.2,-99.9,93,13,58,30.05,29.62,10,-834,17,0.00
2013-11-7,36.4,10.0,30.0,30.0,-61.9,-99.9,88,24,74,30.19,30.05,4,-702,11,0.80
2013-11-8,41.2,12.4,27.3,33.1,-55.7,-99.9,95,27,68,30.24,29.72,13,-659,13,0.18
2013-11-9,47.9,12.2,45.0,39.6,-63.8,-99.9,77,19,69,30.01,29.61,8,-736,20,0.01
2013-11-10,45.5,14.4,36.2,31.2,-55.2,-99.9,73,21,53,30.28,30.01,7,-651,13,0.00
2013-11-11,26.8,5.6,23.6,24.9,-73.3,-99.9,94,18,72,30.55,29.95,13,-771,16,0.00
2013-11-12,25.4,7.1,14.4,14.7,-62.6,-99.9,79,23,60,30.73,30.46,7,-666,12,0.00
2013-11-13,-200.0,0.0,200.0,-99.9,-99.9,-99.9,0,0,100,30.52,30.46,0,-999,0,0.00
2013-12-15,9.5,4.4,-1.6,0.8,-5.1,-9.4,70,64,58,30.15,30.00,11,5,15,0.00
2013-12-16,11.9,4.4,-7.1,9.8,-0.4,-11.9,91,80,67,30.17,29.99,5,1,7,0.00
2013-12-17,30.7,22.8,11.4,24.7,17.8,9.3,94,82,66,30.03,29.87,9,5,14,0.03
2013-12-18,33.1,21.1,10.0,24.1,13.4,5.6,89,73,55,30.07,29.71,12,4,21,0.00
2013-12-19,22.8,20.3,18.0,21.0,18.5,15.8,93,92,91,29.90,29.89,9,7,20,0.00
2013-12-20,20.4,18.8,17.2,18.9,17.0,15.0,100,92,91,29.91,29.79,8,4,14,0.00
2013-12-21,23.6,21.6,19.9,22.4,20.2,18.4,95,94,93,29.87,29.74,4,2,6,0.00
2013-12-22,22.7,20.8,17.0,21.2,19.3,15.3,100,94,93,30.10,29.72,7,3,11,0.00
2013-12-23,19.7,7.3,-3.5,18.1,4.8,-6.9,94,89,85,30.45,30.10,5,2,11,0.00
2013-12-24,10.1,1.3,-10.6,7.0,-1.8,-14.3,89,86,83,30.56,30.27,7,2,13,0.00
2013-12-25,20.9,15.5,6.8,19.4,13.5,4.2,100,92,89,30.27,30.04,8,3,15,0.00
2013-12-26,21.9,15.0,9.9,20.2,12.9,7.6,93,91,90,30.18,30.07,4,2,11,0.00
2013-12-27,35.4,31.6,25.6,32.2,28.7,23.8,94,89,83,30.15,29.95,11,6,17,0.04
2013-12-28,41.4,35.2,24.9,31.9,29.4,22.8,96,80,68,29.99,29.69,11,5,19,0.15
2013-12-29,37.5,14.3,-7.2,30.6,9.5,-14.4,93,81,70,30.26,29.66,13,8,18,0.00
2013-12-30,1.3,-5.3,-15.3,-5.2,-11.9,-20.7,84,73,57,30.35,30.22,8,1,10,0.00
2013-12-31,3.2,0.1,-4.6,-0.4,-4.3,-9.8,86,81,73,30.38,30.20,6,2,12,0.00
2014-1-1,5.4,0.7,-4.3,-2.9,-6.9,-10.9,75,70,63,30.42,30.34,9,4,14,0.00
2014-1-2,8.1,3.2,-5.0,-0.3,-3.7,-10.6,84,73,59,30.46,30.30,12,5,18,0.00